createdAt,value
2023-01-18T00:01:13.519Z,3.12
2023-01-18T00:03:40.745Z,3.12
2023-01-18T00:06:09.806Z,3.11
2023-01-18T00:08:37.769Z,3.09
2023-01-18T00:11:10.364Z,3.05
2023-01-18T00:13:37.249Z,3.05
2023-01-18T00:16:11.038Z,3.01
2023-01-18T00:18:37.903Z,2.99
2023-01-18T00:21:06.783Z,2.95
2023-01-18T00:23:33.760Z,2.92
2023-01-18T00:26:01.929Z,2.88
2023-01-18T00:28:29.003Z,2.84
2023-01-18T00:30:55.813Z,2.79
2023-01-18T00:33:22.621Z,2.75
2023-01-18T00:36:00.056Z,2.70
2023-01-18T00:38:27.857Z,2.66
2023-01-18T00:40:54.388Z,2.62
2023-01-18T00:43:21.143Z,2.58
2023-01-18T00:45:47.672Z,2.54
2023-01-18T00:48:14.155Z,2.50
2023-01-18T00:50:40.697Z,2.44
2023-01-18T00:53:07.191Z,2.41
2023-01-18T00:55:33.812Z,2.36
2023-01-18T00:58:00.301Z,2.33
2023-01-18T01:00:27.116Z,2.29
2023-01-18T01:02:54.151Z,2.26
2023-01-18T01:05:23.103Z,2.22
2023-01-18T01:07:49.811Z,2.20
2023-01-18T01:10:16.464Z,2.16
2023-01-18T01:12:43.049Z,2.14
2023-01-18T01:15:10.881Z,2.11
2023-01-18T01:17:38.293Z,2.06
2023-01-18T01:20:05.783Z,2.03
2023-01-18T01:22:32.450Z,1.99
2023-01-18T01:24:58.969Z,1.96
2023-01-18T01:27:26.278Z,1.92
2023-01-18T01:29:52.827Z,1.88
2023-01-18T01:32:19.309Z,1.85
2023-01-18T01:34:45.983Z,1.81
2023-01-18T01:37:12.445Z,1.79
2023-01-18T01:39:39.095Z,1.76
2023-01-18T01:42:05.843Z,1.74
2023-01-18T01:44:32.400Z,1.71
2023-01-18T01:47:02.820Z,1.70
2023-01-18T01:49:30.838Z,1.68
2023-01-18T01:52:03.023Z,1.62
2023-01-18T01:54:37.206Z,1.65
2023-01-18T01:57:09.100Z,1.62
2023-01-18T01:59:39.330Z,1.62
2023-01-18T02:02:06.727Z,1.61
2023-01-18T02:04:34.217Z,1.58
2023-01-18T02:07:01.033Z,1.57
2023-01-18T02:09:27.806Z,1.56
2023-01-18T02:11:55.463Z,1.55
2023-01-18T02:14:26.386Z,1.53
2023-01-18T02:17:11.559Z,1.53
2023-01-18T02:20:10.381Z,1.51
2023-01-18T02:23:01.552Z,1.51
2023-01-18T02:25:33.700Z,1.52
2023-01-18T02:28:11.169Z,1.52
2023-01-18T02:31:01.868Z,1.54
2023-01-18T02:34:04.188Z,1.56
2023-01-18T02:37:01.639Z,1.62
2023-01-18T02:39:59.891Z,1.67
2023-01-18T02:42:28.051Z,1.76
2023-01-18T02:44:55.103Z,1.82
2023-01-18T02:47:23.089Z,1.90
2023-01-18T02:49:49.630Z,1.97
2023-01-18T02:52:37.464Z,2.05
2023-01-18T02:55:04.098Z,2.09
2023-01-18T02:57:31.087Z,2.23
2023-01-18T03:00:00.264Z,2.31
2023-01-18T03:02:28.368Z,2.40
2023-01-18T03:04:55.754Z,2.47
2023-01-18T03:07:35.085Z,2.51
2023-01-18T03:10:04.517Z,2.59
2023-01-18T03:12:57.515Z,2.63
2023-01-18T03:15:38.719Z,2.67
2023-01-18T03:18:28.492Z,2.67
2023-01-18T03:20:57.081Z,2.75
2023-01-18T03:23:31.028Z,2.74
2023-01-18T03:26:00.614Z,2.81
2023-01-18T03:28:32.385Z,2.85
2023-01-18T03:31:03.486Z,2.94
2023-01-18T03:33:33.790Z,2.95
2023-01-18T03:36:04.333Z,3.04
2023-01-18T03:38:33.136Z,3.12
2023-01-18T03:41:01.743Z,3.18
2023-01-18T03:43:32.329Z,3.22
2023-01-18T03:45:59.250Z,3.29
2023-01-18T03:48:25.816Z,3.37
2023-01-18T03:50:58.216Z,3.41
2023-01-18T03:53:41.236Z,3.44
2023-01-18T03:56:15.695Z,3.48
2023-01-18T03:58:44.685Z,3.52
2023-01-18T04:01:12.128Z,3.53
2023-01-18T04:03:38.685Z,3.54
2023-01-18T04:06:07.866Z,3.53
2023-01-18T04:08:37.460Z,3.55
2023-01-18T04:11:06.960Z,3.51
2023-01-18T04:13:33.477Z,3.52
2023-01-18T04:16:00.054Z,3.53
2023-01-18T04:18:26.550Z,3.49
2023-01-18T04:20:53.057Z,3.46
2023-01-18T04:23:19.624Z,3.45
2023-01-18T04:25:49.699Z,3.43
2023-01-18T04:28:16.641Z,3.42
2023-01-18T04:30:43.172Z,3.42
2023-01-18T04:33:09.773Z,3.40
2023-01-18T04:35:36.316Z,3.39
2023-01-18T04:38:02.829Z,3.37
2023-01-18T04:40:29.376Z,3.30
2023-01-18T04:42:57.341Z,3.33
2023-01-18T04:45:24.265Z,3.32
2023-01-18T04:47:50.803Z,3.31
2023-01-18T04:50:17.431Z,3.28
2023-01-18T04:52:43.922Z,3.27
2023-01-18T04:55:10.513Z,3.26
2023-01-18T04:57:37.073Z,3.26
2023-01-18T05:00:04.041Z,3.24
2023-01-18T05:02:30.515Z,3.24
2023-01-18T05:04:57.036Z,3.23
2023-01-18T05:07:26.987Z,3.22
2023-01-18T05:09:53.627Z,3.25
2023-01-18T05:12:20.093Z,3.24
2023-01-18T05:14:46.624Z,3.23
2023-01-18T05:17:13.527Z,3.21
2023-01-18T05:19:40.174Z,3.22
2023-01-18T05:22:06.866Z,3.19
2023-01-18T05:24:33.539Z,3.18
2023-01-18T05:27:00.111Z,3.15
2023-01-18T05:29:26.646Z,3.15
2023-01-18T05:31:53.213Z,3.14
2023-01-18T05:34:19.798Z,3.14
2023-01-18T05:36:48.101Z,3.13
2023-01-18T05:39:14.753Z,3.11
2023-01-18T05:41:41.286Z,3.08
2023-01-18T05:44:09.285Z,3.07
2023-01-18T05:46:35.742Z,2.98
2023-01-18T05:49:02.321Z,3.00
2023-01-18T05:51:28.799Z,2.96
2023-01-18T05:53:55.336Z,2.97
2023-01-18T05:56:21.968Z,2.98
2023-01-18T05:58:48.489Z,2.97
2023-01-18T06:01:15.013Z,2.97
2023-01-18T06:03:41.695Z,2.97
2023-01-18T06:06:08.304Z,2.97
2023-01-18T06:08:35.070Z,2.96
2023-01-18T06:11:02.648Z,2.95
2023-01-18T06:13:31.071Z,2.94
2023-01-18T06:15:59.307Z,2.95
2023-01-18T06:18:28.202Z,2.92
2023-01-18T06:20:56.352Z,2.91
2023-01-18T06:23:23.400Z,2.84
2023-01-18T06:25:50.401Z,2.86
2023-01-18T06:28:17.504Z,2.87
2023-01-18T06:30:44.010Z,2.85
2023-01-18T06:33:10.525Z,2.83
2023-01-18T06:35:37.364Z,2.83
2023-01-18T06:38:05.157Z,2.81
2023-01-18T06:40:31.770Z,2.80
2023-01-18T06:42:58.628Z,2.79
2023-01-18T06:45:25.686Z,2.78
2023-01-18T06:47:53.075Z,2.78
2023-01-18T06:50:19.821Z,2.78
2023-01-18T06:52:46.494Z,2.77
2023-01-18T06:55:15.076Z,2.77
2023-01-18T06:57:42.026Z,2.75
2023-01-18T07:00:11.099Z,2.74
2023-01-18T07:02:38.131Z,2.74
2023-01-18T07:05:05.441Z,2.73
2023-01-18T07:07:32.103Z,2.73
2023-01-18T07:09:58.587Z,2.73
2023-01-18T07:12:26.053Z,2.74
2023-01-18T07:14:52.527Z,2.74
2023-01-18T07:17:19.095Z,2.74
2023-01-18T07:19:45.707Z,2.76
2023-01-18T07:22:13.421Z,2.76
2023-01-18T07:24:40.083Z,2.76
2023-01-18T07:27:06.588Z,2.76
2023-01-18T07:29:33.123Z,2.78
2023-01-18T07:31:59.716Z,2.78
2023-01-18T07:34:26.273Z,2.80
2023-01-18T07:36:52.865Z,2.81
2023-01-18T07:39:19.335Z,2.84
2023-01-18T07:41:46.114Z,2.89
2023-01-18T07:44:12.586Z,2.94
2023-01-18T07:46:39.206Z,2.99
2023-01-18T07:49:05.751Z,3.06
2023-01-18T07:51:32.706Z,3.10
2023-01-18T07:53:59.391Z,3.18
2023-01-18T07:56:25.922Z,3.22
2023-01-18T07:58:52.785Z,3.29
2023-01-18T08:01:21.749Z,3.34
2023-01-18T08:03:49.758Z,3.40
2023-01-18T08:06:19.738Z,3.39
2023-01-18T08:08:46.265Z,3.52
2023-01-18T08:11:13.038Z,3.57
2023-01-18T08:13:39.655Z,3.63
2023-01-18T08:16:08.323Z,3.69
2023-01-18T08:18:37.436Z,3.75
2023-01-18T08:21:04.575Z,3.84
2023-01-18T08:23:31.144Z,3.92
2023-01-18T08:26:01.712Z,3.99
2023-01-18T08:28:28.253Z,4.09
2023-01-18T08:31:08.998Z,4.17
2023-01-18T08:33:40.556Z,4.26
2023-01-18T08:36:10.087Z,4.33
2023-01-18T08:38:36.710Z,4.42
2023-01-18T08:41:04.182Z,4.50
2023-01-18T08:43:30.723Z,4.57
2023-01-18T08:45:57.335Z,4.65
2023-01-18T08:48:23.813Z,4.72
2023-01-18T08:50:51.761Z,4.80
2023-01-18T08:53:18.304Z,4.86
2023-01-18T08:55:44.938Z,4.93
2023-01-18T08:58:11.550Z,4.99
2023-01-18T09:00:38.145Z,5.05
2023-01-18T09:03:04.806Z,5.11
2023-01-18T09:05:34.080Z,5.17
2023-01-18T09:08:00.668Z,5.23
2023-01-18T09:10:27.165Z,5.28
2023-01-18T09:12:54.900Z,5.35
2023-01-18T09:15:21.457Z,5.38
2023-01-18T09:17:47.921Z,5.43
2023-01-18T09:20:15.593Z,5.43
2023-01-18T09:22:43.620Z,5.46
2023-01-18T09:25:10.359Z,5.45
2023-01-18T09:27:37.357Z,5.45
2023-01-18T09:30:05.247Z,5.43
2023-01-18T09:32:31.852Z,5.40
2023-01-18T09:34:58.472Z,5.37
2023-01-18T09:37:25.041Z,5.34
2023-01-18T09:39:52.612Z,5.31
2023-01-18T09:42:25.494Z,5.28
2023-01-18T09:44:55.226Z,5.25
2023-01-18T09:47:35.319Z,5.24
2023-01-18T09:50:22.241Z,5.22
2023-01-18T09:52:51.373Z,5.24
2023-01-18T09:55:42.043Z,5.25
2023-01-18T09:58:25.701Z,5.27
2023-01-18T10:00:58.745Z,5.34
2023-01-18T10:03:34.112Z,5.48
2023-01-18T10:06:07.917Z,5.63
2023-01-18T10:08:46.728Z,5.77
2023-01-18T10:11:25.487Z,5.91
2023-01-18T10:13:57.152Z,6.01
2023-01-18T10:16:30.600Z,6.09
2023-01-18T10:18:57.260Z,6.13
2023-01-18T10:21:39.048Z,6.14
2023-01-18T10:24:21.649Z,6.14
2023-01-18T10:26:51.875Z,6.16
2023-01-18T10:29:53.331Z,6.15
2023-01-18T10:32:23.412Z,6.06
2023-01-18T10:34:51.723Z,6.09
2023-01-18T10:37:31.586Z,6.05
2023-01-18T10:40:01.655Z,6.04
2023-01-18T10:42:35.893Z,5.98
2023-01-18T10:45:02.382Z,5.96
2023-01-18T10:47:28.952Z,6.00
2023-01-18T10:49:59.521Z,5.96
2023-01-18T10:52:30.566Z,5.98
2023-01-18T10:55:02.588Z,5.97
2023-01-18T10:57:35.618Z,5.90
2023-01-18T11:00:03.727Z,5.96
2023-01-18T11:02:35.801Z,5.96
2023-01-18T11:05:19.233Z,6.01
2023-01-18T11:07:45.893Z,6.12
2023-01-18T11:10:24.793Z,6.12
2023-01-18T11:12:51.535Z,6.18
2023-01-18T11:15:17.966Z,6.18
2023-01-18T11:17:50.253Z,6.17
2023-01-18T11:20:44.952Z,6.19
2023-01-18T11:23:19.729Z,6.25
2023-01-18T11:26:04.100Z,6.24
2023-01-18T11:28:35.043Z,6.26
2023-01-18T11:31:11.193Z,6.32
2023-01-18T11:34:01.087Z,6.39
2023-01-18T11:36:44.896Z,6.37
2023-01-18T11:39:24.110Z,6.40
2023-01-18T11:41:51.634Z,6.39
2023-01-18T11:44:23.586Z,6.38
2023-01-18T11:46:53.702Z,6.34
2023-01-18T11:49:33.647Z,6.32
2023-01-18T11:52:02.148Z,6.26
2023-01-18T11:54:43.095Z,6.25
2023-01-18T11:57:10.977Z,6.21
2023-01-18T11:59:41.914Z,6.15
2023-01-18T12:02:29.818Z,6.06
2023-01-18T12:05:14.628Z,5.92
2023-01-18T12:08:01.985Z,5.95
2023-01-18T12:10:40.997Z,5.94
2023-01-18T12:13:57.136Z,5.93
2023-01-18T12:16:42.338Z,5.86
2023-01-18T12:19:11.539Z,5.88
2023-01-18T12:21:56.409Z,5.86
2023-01-18T12:24:55.900Z,5.87
2023-01-18T12:27:46.407Z,5.88
2023-01-18T12:30:48.518Z,5.88
2023-01-18T12:33:46.929Z,5.85
2023-01-18T12:36:38.171Z,5.74
2023-01-18T12:39:18.972Z,5.71
2023-01-18T12:42:05.790Z,5.68
2023-01-18T12:44:58.161Z,5.72
2023-01-18T12:47:38.003Z,5.79
2023-01-18T12:50:30.441Z,5.77
2023-01-18T12:53:06.115Z,5.77
2023-01-18T12:55:35.399Z,5.81
2023-01-18T12:58:03.110Z,5.80
2023-01-18T13:00:47.474Z,5.73
2023-01-18T13:03:19.821Z,5.66
2023-01-18T13:06:00.141Z,5.62
2023-01-18T13:08:42.139Z,5.50
2023-01-18T13:11:22.324Z,5.51
2023-01-18T13:13:55.213Z,5.46
2023-01-18T13:16:51.029Z,5.44
2023-01-18T13:19:24.829Z,5.40
2023-01-18T13:22:16.551Z,5.37
2023-01-18T13:25:00.798Z,5.33
2023-01-18T13:27:27.551Z,5.37
2023-01-18T13:29:54.083Z,5.51
2023-01-18T13:32:25.211Z,5.62
2023-01-18T13:35:19.539Z,5.53
2023-01-18T13:37:56.409Z,5.71
2023-01-18T13:40:34.243Z,5.68
2023-01-18T13:43:01.439Z,5.57
2023-01-18T13:45:30.097Z,5.48
2023-01-18T13:48:00.519Z,5.39
2023-01-18T13:50:29.971Z,5.27
2023-01-18T13:53:14.933Z,5.14
2023-01-18T13:55:59.810Z,5.05
2023-01-18T13:58:27.865Z,5.07
2023-01-18T14:00:56.313Z,4.97
2023-01-18T14:03:27.546Z,4.85
2023-01-18T14:05:56.160Z,4.71
2023-01-18T14:08:27.291Z,4.51
2023-01-18T14:11:05.725Z,4.49
2023-01-18T14:13:47.168Z,4.34
2023-01-18T14:16:19.897Z,4.26
2023-01-18T14:18:55.111Z,4.26
2023-01-18T14:21:38.989Z,4.25
2023-01-18T14:24:20.300Z,4.08
2023-01-18T14:26:47.857Z,4.12
2023-01-18T14:29:25.049Z,3.99
2023-01-18T14:31:54.801Z,3.87
2023-01-18T14:34:29.982Z,3.79
2023-01-18T14:37:00.343Z,3.69
2023-01-18T14:39:27.023Z,3.73
2023-01-18T14:41:58.429Z,3.65
2023-01-18T14:44:32.708Z,3.67
2023-01-18T14:47:00.440Z,3.60
2023-01-18T14:49:33.735Z,3.59
2023-01-18T14:52:01.699Z,3.61
2023-01-18T14:54:28.825Z,3.56
2023-01-18T14:57:06.014Z,3.53
2023-01-18T14:59:33.785Z,3.50
2023-01-18T15:02:15.861Z,3.52
2023-01-18T15:04:42.473Z,3.63
2023-01-18T15:07:13.817Z,3.64
2023-01-18T15:09:42.026Z,3.59
2023-01-18T15:12:10.175Z,3.50
2023-01-18T15:14:41.679Z,3.53
2023-01-18T15:17:11.486Z,3.50
2023-01-18T15:19:46.620Z,3.51
2023-01-18T15:22:15.825Z,3.51
2023-01-18T15:24:44.784Z,3.52
2023-01-18T15:27:14.408Z,3.53
2023-01-18T15:29:45.934Z,3.53
2023-01-18T15:32:19.764Z,3.52
2023-01-18T15:34:49.274Z,3.57
2023-01-18T15:37:26.373Z,3.55
2023-01-18T15:40:05.565Z,3.52
2023-01-18T15:42:51.026Z,3.48
2023-01-18T15:45:20.743Z,3.42
2023-01-18T15:47:51.243Z,3.47
2023-01-18T15:50:23.924Z,3.43
2023-01-18T15:52:59.453Z,3.44
2023-01-18T15:55:53.240Z,3.40
2023-01-18T15:58:34.939Z,3.39
2023-01-18T16:01:23.586Z,3.32
2023-01-18T16:03:50.090Z,3.36
2023-01-18T16:06:22.452Z,3.35
2023-01-18T16:09:12.871Z,3.36
2023-01-18T16:11:45.259Z,3.38
2023-01-18T16:14:29.796Z,3.38
2023-01-18T16:17:16.011Z,3.34
2023-01-18T16:19:48.738Z,3.33
2023-01-18T16:22:20.811Z,3.31
2023-01-18T16:24:51.902Z,3.29
2023-01-18T16:27:20.850Z,3.27
2023-01-18T16:30:09.952Z,3.26
2023-01-18T16:32:36.705Z,3.33
2023-01-18T16:35:14.169Z,3.27
2023-01-18T16:37:41.640Z,3.27
2023-01-18T16:40:09.200Z,3.24
2023-01-18T16:42:55.255Z,3.22
2023-01-18T16:45:22.007Z,3.21
2023-01-18T16:47:48.977Z,3.20
2023-01-18T16:50:17.219Z,3.18
2023-01-18T16:52:44.354Z,3.18
2023-01-18T16:55:15.585Z,3.20
2023-01-18T16:57:43.043Z,3.22
2023-01-18T17:00:18.322Z,3.23
2023-01-18T17:02:45.201Z,3.20
2023-01-18T17:05:12.847Z,3.12
2023-01-18T17:07:40.196Z,3.12
2023-01-18T17:10:29.036Z,3.00
2023-01-18T17:12:55.591Z,3.06
2023-01-18T17:15:22.154Z,3.09
2023-01-18T17:17:48.951Z,3.04
2023-01-18T17:20:21.063Z,3.03
2023-01-18T17:22:47.539Z,3.03
2023-01-18T17:25:14.433Z,2.97
2023-01-18T17:27:41.208Z,3.01
2023-01-18T17:30:09.015Z,3.00
2023-01-18T17:32:35.527Z,2.98
2023-01-18T17:35:02.453Z,2.99
2023-01-18T17:37:28.958Z,2.99
2023-01-18T17:40:12.109Z,2.98
2023-01-18T17:42:40.729Z,2.98
2023-01-18T17:45:07.855Z,2.99
2023-01-18T17:47:35.235Z,3.02
2023-01-18T17:50:01.976Z,2.99
2023-01-18T17:52:28.582Z,3.02
2023-01-18T17:54:55.152Z,3.02
2023-01-18T17:57:21.862Z,3.01
2023-01-18T17:59:48.408Z,3.00
2023-01-18T18:02:14.967Z,2.99
2023-01-18T18:04:41.689Z,2.97
2023-01-18T18:07:08.184Z,2.98
2023-01-18T18:09:34.695Z,3.01
2023-01-18T18:12:01.179Z,2.96
2023-01-18T18:14:27.750Z,2.92
2023-01-18T18:16:54.427Z,2.92
2023-01-18T18:19:20.958Z,2.94
2023-01-18T18:21:47.541Z,2.94
2023-01-18T18:24:14.007Z,2.89
2023-01-18T18:26:40.453Z,2.89
2023-01-18T18:29:07.178Z,2.89
2023-01-18T18:31:33.667Z,2.85
2023-01-18T18:34:00.390Z,2.87
2023-01-18T18:36:26.924Z,2.86
2023-01-18T18:38:53.474Z,2.88
2023-01-18T18:41:20.029Z,2.88
2023-01-18T18:43:46.553Z,2.90
2023-01-18T18:46:13.323Z,2.88
2023-01-18T18:48:39.819Z,2.91
2023-01-18T18:51:06.390Z,2.93
2023-01-18T18:53:38.294Z,2.93
2023-01-18T18:56:06.665Z,2.95
2023-01-18T18:58:36.355Z,2.94
2023-01-18T19:01:03.663Z,2.95
2023-01-18T19:03:30.703Z,2.93
2023-01-18T19:05:57.216Z,2.93
2023-01-18T19:08:23.998Z,2.96
2023-01-18T19:10:51.722Z,2.94
2023-01-18T19:13:18.865Z,2.95
2023-01-18T19:15:46.565Z,2.96
2023-01-18T19:18:14.062Z,2.97
2023-01-18T19:20:41.149Z,2.95
2023-01-18T19:23:09.185Z,2.95
2023-01-18T19:25:37.528Z,2.92
2023-01-18T19:28:04.449Z,2.98
2023-01-18T19:30:31.599Z,2.99
2023-01-18T19:32:59.516Z,3.00
2023-01-18T19:35:26.609Z,2.95
2023-01-18T19:37:53.648Z,2.97
2023-01-18T19:40:21.100Z,3.00
2023-01-18T19:42:50.856Z,2.96
2023-01-18T19:45:27.348Z,2.99
2023-01-18T19:47:55.738Z,3.00
2023-01-18T19:50:22.283Z,2.98
2023-01-18T19:52:50.576Z,2.99
2023-01-18T19:55:17.252Z,2.95
2023-01-18T19:57:43.783Z,2.98
2023-01-18T20:00:11.121Z,2.94
2023-01-18T20:02:41.302Z,2.95
2023-01-18T20:05:08.777Z,2.90
2023-01-18T20:07:38.299Z,2.92
2023-01-18T20:10:06.333Z,2.92
2023-01-18T20:12:32.980Z,2.90
2023-01-18T20:14:59.485Z,2.93
2023-01-18T20:17:26.035Z,2.92
2023-01-18T20:19:52.532Z,2.93
2023-01-18T20:22:19.145Z,2.92
2023-01-18T20:24:45.686Z,2.89
2023-01-18T20:27:16.125Z,2.87
2023-01-18T20:29:43.324Z,2.84
2023-01-18T20:32:16.216Z,2.86
2023-01-18T20:34:44.922Z,2.86
2023-01-18T20:37:12.865Z,2.87
2023-01-18T20:39:39.716Z,2.85
2023-01-18T20:42:06.226Z,2.87
2023-01-18T20:44:33.039Z,2.88
2023-01-18T20:46:59.825Z,2.89
2023-01-18T20:49:36.949Z,2.86
2023-01-18T20:52:05.326Z,2.88
2023-01-18T20:54:32.136Z,2.89
2023-01-18T20:56:59.537Z,2.90
2023-01-18T20:59:26.156Z,2.91
2023-01-18T21:01:53.129Z,2.92
2023-01-18T21:04:19.931Z,2.90
2023-01-18T21:06:47.115Z,2.88
2023-01-18T21:09:13.652Z,2.88
2023-01-18T21:11:40.153Z,2.88
2023-01-18T21:14:06.811Z,2.88
2023-01-18T21:16:33.400Z,2.87
2023-01-18T21:18:59.890Z,2.87
2023-01-18T21:21:27.298Z,2.87
2023-01-18T21:23:53.810Z,2.84
2023-01-18T21:26:20.443Z,2.87
2023-01-18T21:28:46.979Z,2.87
2023-01-18T21:31:13.739Z,2.87
2023-01-18T21:33:40.192Z,2.85
2023-01-18T21:36:09.607Z,2.88
2023-01-18T21:38:36.240Z,2.88
2023-01-18T21:41:02.947Z,2.88
2023-01-18T21:43:29.453Z,2.88
2023-01-18T21:45:57.529Z,2.87
2023-01-18T21:48:26.587Z,2.78
2023-01-18T21:50:54.625Z,2.81
2023-01-18T21:53:21.325Z,2.79
2023-01-18T21:55:47.829Z,2.76
2023-01-18T21:58:14.639Z,2.68
2023-01-18T22:00:41.129Z,2.64
2023-01-18T22:03:07.842Z,2.61
2023-01-18T22:05:34.425Z,2.57
2023-01-18T22:08:01.462Z,2.56
2023-01-18T22:10:28.234Z,2.51
2023-01-18T22:12:54.761Z,2.48
2023-01-18T22:15:21.259Z,2.46
2023-01-18T22:17:47.900Z,2.44
2023-01-18T22:20:14.803Z,2.43
2023-01-18T22:22:41.420Z,2.41
2023-01-18T22:25:08.524Z,2.39
2023-01-18T22:27:35.074Z,2.41
2023-01-18T22:30:02.327Z,2.41
2023-01-18T22:32:28.941Z,2.41
2023-01-18T22:34:55.466Z,2.39
2023-01-18T22:37:22.025Z,2.40
2023-01-18T22:39:48.580Z,2.40
2023-01-18T22:42:15.106Z,2.43
2023-01-18T22:44:41.716Z,2.44
2023-01-18T22:47:08.292Z,2.45
2023-01-18T22:49:34.914Z,2.43
2023-01-18T22:52:01.590Z,2.44
2023-01-18T22:54:28.446Z,2.44
2023-01-18T22:56:55.044Z,2.44
2023-01-18T22:59:21.791Z,2.47
2023-01-18T23:01:48.327Z,2.43
2023-01-18T23:04:14.796Z,2.44
2023-01-18T23:06:41.504Z,2.45
2023-01-18T23:09:09.671Z,2.45
2023-01-18T23:11:36.116Z,2.38
2023-01-18T23:14:02.736Z,2.42
2023-01-18T23:16:29.940Z,2.42
2023-01-18T23:18:56.449Z,2.41
2023-01-18T23:21:23.408Z,2.38
2023-01-18T23:23:50.175Z,2.36
2023-01-18T23:26:16.783Z,2.34
2023-01-18T23:28:43.397Z,2.33
2023-01-18T23:31:15.411Z,2.27
2023-01-18T23:33:42.316Z,2.26
2023-01-18T23:36:10.447Z,2.24
2023-01-18T23:38:37.571Z,2.26
2023-01-18T23:41:04.249Z,2.21
2023-01-18T23:43:30.834Z,2.19
2023-01-18T23:45:57.504Z,2.16
2023-01-18T23:48:23.979Z,2.16
2023-01-18T23:50:50.584Z,2.14
2023-01-18T23:53:17.088Z,2.12
2023-01-18T23:55:43.888Z,2.13
2023-01-18T23:58:10.524Z,2.15
